sensor_id;sensor_type;location;lat;lon;timestamp;P1;durP1;ratioP1;P2;durP2;ratioP2
38083;SDS011;23894;51.466;7.444;2023-03-23T00:00:27;9.43;;;4.38;;
38083;SDS011;23894;51.466;7.444;2023-03-23T00:02:30;8.30;;;4.05;;
38083;SDS011;23894;51.466;7.444;2023-03-23T00:04:38;8.73;;;4.22;;
38083;SDS011;23894;51.466;7.444;2023-03-23T00:06:52;9.30;;;4.35;;
38083;SDS011;23894;51.466;7.444;2023-03-23T00:08:56;8.60;;;4.22;;
38083;SDS011;23894;51.466;7.444;2023-03-23T00:11:00;8.93;;;4.10;;
38083;SDS011;23894;51.466;7.444;2023-03-23T00:13:04;7.53;;;3.97;;
38083;SDS011;23894;51.466;7.444;2023-03-23T00:15:07;7.47;;;4.07;;
38083;SDS011;23894;51.466;7.444;2023-03-23T00:17:19;9.82;;;4.10;;
38083;SDS011;23894;51.466;7.444;2023-03-23T00:19:21;8.02;;;3.97;;
38083;SDS011;23894;51.466;7.444;2023-03-23T00:21:25;9.15;;;4.32;;
38083;SDS011;23894;51.466;7.444;2023-03-23T00:23:34;8.47;;;4.10;;
38083;SDS011;23894;51.466;7.444;2023-03-23T00:25:36;8.82;;;3.88;;
38083;SDS011;23894;51.466;7.444;2023-03-23T00:27:38;5.93;;;3.60;;
38083;SDS011;23894;51.466;7.444;2023-03-23T00:29:40;9.38;;;3.88;;
38083;SDS011;23894;51.466;7.444;2023-03-23T00:31:43;7.95;;;3.60;;
38083;SDS011;23894;51.466;7.444;2023-03-23T00:33:48;9.98;;;3.67;;
38083;SDS011;23894;51.466;7.444;2023-03-23T00:35:52;7.88;;;3.70;;
38083;SDS011;23894;51.466;7.444;2023-03-23T00:37:58;8.10;;;3.45;;
38083;SDS011;23894;51.466;7.444;2023-03-23T00:40:02;8.55;;;3.50;;
38083;SDS011;23894;51.466;7.444;2023-03-23T00:42:10;7.75;;;3.03;;
38083;SDS011;23894;51.466;7.444;2023-03-23T00:44:12;6.53;;;3.50;;
38083;SDS011;23894;51.466;7.444;2023-03-23T00:46:27;7.30;;;3.33;;
38083;SDS011;23894;51.466;7.444;2023-03-23T00:48:29;6.43;;;3.60;;
38083;SDS011;23894;51.466;7.444;2023-03-23T00:50:34;7.20;;;3.60;;
38083;SDS011;23894;51.466;7.444;2023-03-23T00:52:36;6.50;;;3.13;;
38083;SDS011;23894;51.466;7.444;2023-03-23T00:54:40;9.23;;;3.25;;
38083;SDS011;23894;51.466;7.444;2023-03-23T00:56:43;7.95;;;3.30;;
38083;SDS011;23894;51.466;7.444;2023-03-23T00:58:47;8.48;;;3.53;;
38083;SDS011;23894;51.466;7.444;2023-03-23T01:00:49;5.75;;;3.35;;
38083;SDS011;23894;51.466;7.444;2023-03-23T01:02:52;7.32;;;3.03;;
38083;SDS011;23894;51.466;7.444;2023-03-23T01:04:54;6.95;;;3.15;;
38083;SDS011;23894;51.466;7.444;2023-03-23T01:06:58;7.15;;;3.35;;
38083;SDS011;23894;51.466;7.444;2023-03-23T01:09:02;7.95;;;3.70;;
38083;SDS011;23894;51.466;7.444;2023-03-23T01:11:04;8.20;;;3.40;;
38083;SDS011;23894;51.466;7.444;2023-03-23T01:13:08;6.35;;;3.03;;
38083;SDS011;23894;51.466;7.444;2023-03-23T01:15:14;5.93;;;3.17;;
38083;SDS011;23894;51.466;7.444;2023-03-23T01:17:17;5.45;;;2.97;;
38083;SDS011;23894;51.466;7.444;2023-03-23T01:19:31;7.20;;;2.70;;
38083;SDS011;23894;51.466;7.444;2023-03-23T01:21:33;5.43;;;2.90;;
38083;SDS011;23894;51.466;7.444;2023-03-23T01:23:36;7.38;;;3.00;;
38083;SDS011;23894;51.466;7.444;2023-03-23T01:25:41;6.07;;;3.10;;
38083;SDS011;23894;51.466;7.444;2023-03-23T01:27:43;7.32;;;3.40;;
38083;SDS011;23894;51.466;7.444;2023-03-23T01:29:46;7.88;;;3.35;;
38083;SDS011;23894;51.466;7.444;2023-03-23T01:31:50;6.53;;;3.42;;
38083;SDS011;23894;51.466;7.444;2023-03-23T01:33:52;7.55;;;3.40;;
38083;SDS011;23894;51.466;7.444;2023-03-23T01:35:56;6.85;;;3.15;;
38083;SDS011;23894;51.466;7.444;2023-03-23T01:37:59;9.35;;;3.50;;
38083;SDS011;23894;51.466;7.444;2023-03-23T01:40:01;6.80;;;3.78;;
38083;SDS011;23894;51.466;7.444;2023-03-23T01:42:07;6.13;;;2.88;;
38083;SDS011;23894;51.466;7.444;2023-03-23T01:46:17;6.40;;;3.28;;
38083;SDS011;23894;51.466;7.444;2023-03-23T01:48:27;6.85;;;3.55;;
38083;SDS011;23894;51.466;7.444;2023-03-23T01:50:41;6.47;;;3.47;;
38083;SDS011;23894;51.466;7.444;2023-03-23T01:52:45;6.65;;;3.17;;
38083;SDS011;23894;51.466;7.444;2023-03-23T01:54:49;8.73;;;3.67;;
38083;SDS011;23894;51.466;7.444;2023-03-23T01:57:11;7.63;;;3.78;;
38083;SDS011;23894;51.466;7.444;2023-03-23T01:59:13;8.15;;;3.40;;
38083;SDS011;23894;51.466;7.444;2023-03-23T02:01:17;6.85;;;3.50;;
38083;SDS011;23894;51.466;7.444;2023-03-23T02:03:23;6.75;;;3.42;;
38083;SDS011;23894;51.466;7.444;2023-03-23T02:05:40;6.70;;;3.35;;
38083;SDS011;23894;51.466;7.444;2023-03-23T02:07:43;6.47;;;3.95;;
38083;SDS011;23894;51.466;7.444;2023-03-23T02:09:49;6.68;;;3.38;;
38083;SDS011;23894;51.466;7.444;2023-03-23T02:11:53;7.50;;;3.65;;
38083;SDS011;23894;51.466;7.444;2023-03-23T02:13:57;6.03;;;3.38;;
38083;SDS011;23894;51.466;7.444;2023-03-23T02:16:08;5.70;;;2.60;;
38083;SDS011;23894;51.466;7.444;2023-03-23T02:20:43;6.13;;;2.65;;
38083;SDS011;23894;51.466;7.444;2023-03-23T02:34:38;6.85;;;3.38;;
38083;SDS011;23894;51.466;7.444;2023-03-23T02:37:16;8.40;;;3.75;;
38083;SDS011;23894;51.466;7.444;2023-03-23T02:39:33;6.07;;;3.08;;
38083;SDS011;23894;51.466;7.444;2023-03-23T02:41:36;6.75;;;3.42;;
38083;SDS011;23894;51.466;7.444;2023-03-23T02:43:43;5.38;;;2.88;;
38083;SDS011;23894;51.466;7.444;2023-03-23T02:45:46;8.60;;;4.10;;
38083;SDS011;23894;51.466;7.444;2023-03-23T02:47:52;5.72;;;2.72;;
38083;SDS011;23894;51.466;7.444;2023-03-23T02:49:56;6.13;;;3.45;;
38083;SDS011;23894;51.466;7.444;2023-03-23T02:52:02;6.38;;;3.00;;
38083;SDS011;23894;51.466;7.444;2023-03-23T02:54:23;6.05;;;3.00;;
38083;SDS011;23894;51.466;7.444;2023-03-23T02:56:27;5.93;;;3.20;;
38083;SDS011;23894;51.466;7.444;2023-03-23T02:58:30;6.32;;;3.38;;
38083;SDS011;23894;51.466;7.444;2023-03-23T03:00:34;5.78;;;3.25;;
38083;SDS011;23894;51.466;7.444;2023-03-23T03:03:00;5.38;;;2.78;;
38083;SDS011;23894;51.466;7.444;2023-03-23T03:05:03;6.25;;;3.10;;
38083;SDS011;23894;51.466;7.444;2023-03-23T03:14:11;5.70;;;3.38;;
38083;SDS011;23894;51.466;7.444;2023-03-23T03:16:23;8.38;;;3.10;;
38083;SDS011;23894;51.466;7.444;2023-03-23T03:18:48;5.88;;;3.40;;
38083;SDS011;23894;51.466;7.444;2023-03-23T03:20:48;6.38;;;3.10;;
38083;SDS011;23894;51.466;7.444;2023-03-23T03:22:50;5.75;;;3.10;;
38083;SDS011;23894;51.466;7.444;2023-03-23T03:24:55;6.55;;;3.10;;
38083;SDS011;23894;51.466;7.444;2023-03-23T03:27:00;6.70;;;3.40;;
38083;SDS011;23894;51.466;7.444;2023-03-23T03:29:04;6.82;;;3.28;;
38083;SDS011;23894;51.466;7.444;2023-03-23T03:31:07;5.28;;;3.03;;
38083;SDS011;23894;51.466;7.444;2023-03-23T03:33:10;5.55;;;2.78;;
38083;SDS011;23894;51.466;7.444;2023-03-23T03:35:24;6.68;;;3.05;;
38083;SDS011;23894;51.466;7.444;2023-03-23T03:37:26;6.50;;;3.30;;
38083;SDS011;23894;51.466;7.444;2023-03-23T03:39:29;5.53;;;3.00;;
38083;SDS011;23894;51.466;7.444;2023-03-23T03:41:32;6.47;;;2.63;;
38083;SDS011;23894;51.466;7.444;2023-03-23T03:43:33;6.13;;;2.70;;
38083;SDS011;23894;51.466;7.444;2023-03-23T03:45:37;6.07;;;2.85;;
38083;SDS011;23894;51.466;7.444;2023-03-23T03:47:40;6.80;;;3.25;;
38083;SDS011;23894;51.466;7.444;2023-03-23T03:49:43;5.70;;;2.80;;
38083;SDS011;23894;51.466;7.444;2023-03-23T03:51:45;5.85;;;2.72;;
38083;SDS011;23894;51.466;7.444;2023-03-23T03:53:48;5.45;;;2.70;;
38083;SDS011;23894;51.466;7.444;2023-03-23T03:55:50;7.20;;;2.92;;
38083;SDS011;23894;51.466;7.444;2023-03-23T03:57:56;5.70;;;2.60;;
38083;SDS011;23894;51.466;7.444;2023-03-23T03:59:59;5.15;;;2.60;;
38083;SDS011;23894;51.466;7.444;2023-03-23T04:02:03;5.45;;;2.50;;
38083;SDS011;23894;51.466;7.444;2023-03-23T04:04:05;5.20;;;2.78;;
38083;SDS011;23894;51.466;7.444;2023-03-23T04:06:07;5.47;;;2.90;;
38083;SDS011;23894;51.466;7.444;2023-03-23T04:08:09;6.25;;;2.70;;
38083;SDS011;23894;51.466;7.444;2023-03-23T04:10:13;5.82;;;2.70;;
38083;SDS011;23894;51.466;7.444;2023-03-23T04:12:16;5.78;;;2.78;;
38083;SDS011;23894;51.466;7.444;2023-03-23T04:14:20;5.22;;;2.45;;
38083;SDS011;23894;51.466;7.444;2023-03-23T04:16:23;6.07;;;2.88;;
38083;SDS011;23894;51.466;7.444;2023-03-23T04:18:26;4.97;;;2.60;;
38083;SDS011;23894;51.466;7.444;2023-03-23T04:20:29;6.03;;;2.53;;
38083;SDS011;23894;51.466;7.444;2023-03-23T04:22:33;5.35;;;2.55;;
38083;SDS011;23894;51.466;7.444;2023-03-23T04:24:36;6.13;;;2.63;;
38083;SDS011;23894;51.466;7.444;2023-03-23T04:26:38;5.30;;;2.75;;
38083;SDS011;23894;51.466;7.444;2023-03-23T04:28:40;4.90;;;2.50;;
38083;SDS011;23894;51.466;7.444;2023-03-23T04:30:44;4.70;;;2.55;;
38083;SDS011;23894;51.466;7.444;2023-03-23T04:32:50;5.32;;;2.78;;
38083;SDS011;23894;51.466;7.444;2023-03-23T04:34:52;5.80;;;2.80;;
38083;SDS011;23894;51.466;7.444;2023-03-23T04:36:54;5.07;;;2.63;;
38083;SDS011;23894;51.466;7.444;2023-03-23T04:38:58;6.20;;;2.63;;
38083;SDS011;23894;51.466;7.444;2023-03-23T04:41:01;5.38;;;2.60;;
38083;SDS011;23894;51.466;7.444;2023-03-23T04:43:05;5.43;;;2.38;;
38083;SDS011;23894;51.466;7.444;2023-03-23T04:45:08;5.00;;;2.50;;
38083;SDS011;23894;51.466;7.444;2023-03-23T04:47:12;5.78;;;2.40;;
38083;SDS011;23894;51.466;7.444;2023-03-23T04:49:41;5.10;;;2.35;;
38083;SDS011;23894;51.466;7.444;2023-03-23T04:51:45;6.70;;;2.65;;
38083;SDS011;23894;51.466;7.444;2023-03-23T04:53:48;5.30;;;2.42;;
38083;SDS011;23894;51.466;7.444;2023-03-23T04:55:52;4.78;;;2.35;;
38083;SDS011;23894;51.466;7.444;2023-03-23T04:57:55;4.45;;;2.10;;
38083;SDS011;23894;51.466;7.444;2023-03-23T05:00:02;6.13;;;2.58;;
38083;SDS011;23894;51.466;7.444;2023-03-23T05:02:13;4.93;;;2.40;;
38083;SDS011;23894;51.466;7.444;2023-03-23T05:04:14;6.35;;;2.45;;
38083;SDS011;23894;51.466;7.444;2023-03-23T05:06:18;5.43;;;2.42;;
38083;SDS011;23894;51.466;7.444;2023-03-23T05:08:21;4.22;;;1.98;;
38083;SDS011;23894;51.466;7.444;2023-03-23T05:10:28;4.75;;;2.30;;
38083;SDS011;23894;51.466;7.444;2023-03-23T05:12:32;6.38;;;2.28;;
38083;SDS011;23894;51.466;7.444;2023-03-23T05:14:35;4.22;;;2.22;;
38083;SDS011;23894;51.466;7.444;2023-03-23T05:16:40;5.28;;;2.53;;
38083;SDS011;23894;51.466;7.444;2023-03-23T05:18:48;6.18;;;2.40;;
38083;SDS011;23894;51.466;7.444;2023-03-23T05:20:54;6.13;;;2.22;;
38083;SDS011;23894;51.466;7.444;2023-03-23T05:22:56;5.18;;;2.63;;
38083;SDS011;23894;51.466;7.444;2023-03-23T05:24:59;6.45;;;2.67;;
38083;SDS011;23894;51.466;7.444;2023-03-23T05:27:05;5.45;;;2.53;;
38083;SDS011;23894;51.466;7.444;2023-03-23T05:29:18;5.20;;;2.10;;
38083;SDS011;23894;51.466;7.444;2023-03-23T05:31:20;6.07;;;2.67;;
38083;SDS011;23894;51.466;7.444;2023-03-23T05:33:22;5.70;;;2.70;;
38083;SDS011;23894;51.466;7.444;2023-03-23T05:35:24;6.57;;;2.30;;
38083;SDS011;23894;51.466;7.444;2023-03-23T05:37:29;4.85;;;2.53;;
38083;SDS011;23894;51.466;7.444;2023-03-23T05:39:42;6.38;;;2.47;;
38083;SDS011;23894;51.466;7.444;2023-03-23T05:41:46;5.20;;;2.45;;
38083;SDS011;23894;51.466;7.444;2023-03-23T05:43:51;5.43;;;2.53;;
38083;SDS011;23894;51.466;7.444;2023-03-23T05:45:54;6.22;;;2.53;;
38083;SDS011;23894;51.466;7.444;2023-03-23T05:47:57;5.00;;;2.50;;
38083;SDS011;23894;51.466;7.444;2023-03-23T05:50:01;6.05;;;2.47;;
38083;SDS011;23894;51.466;7.444;2023-03-23T05:52:06;4.93;;;2.67;;
38083;SDS011;23894;51.466;7.444;2023-03-23T05:54:09;5.60;;;2.42;;
38083;SDS011;23894;51.466;7.444;2023-03-23T05:56:13;4.30;;;2.30;;
38083;SDS011;23894;51.466;7.444;2023-03-23T05:58:37;6.45;;;2.42;;
38083;SDS011;23894;51.466;7.444;2023-03-23T06:00:39;5.65;;;2.50;;
38083;SDS011;23894;51.466;7.444;2023-03-23T06:02:43;5.95;;;2.35;;
38083;SDS011;23894;51.466;7.444;2023-03-23T06:04:46;5.60;;;2.72;;
38083;SDS011;23894;51.466;7.444;2023-03-23T06:06:50;6.07;;;2.50;;
38083;SDS011;23894;51.466;7.444;2023-03-23T06:08:53;6.55;;;2.30;;
38083;SDS011;23894;51.466;7.444;2023-03-23T06:10:57;5.13;;;2.50;;
38083;SDS011;23894;51.466;7.444;2023-03-23T06:12:59;5.65;;;2.60;;
38083;SDS011;23894;51.466;7.444;2023-03-23T06:15:05;5.68;;;2.90;;
38083;SDS011;23894;51.466;7.444;2023-03-23T06:17:10;4.63;;;2.33;;
38083;SDS011;23894;51.466;7.444;2023-03-23T06:19:12;5.43;;;2.97;;
38083;SDS011;23894;51.466;7.444;2023-03-23T06:21:25;5.30;;;2.65;;
38083;SDS011;23894;51.466;7.444;2023-03-23T06:23:28;6.00;;;2.90;;
38083;SDS011;23894;51.466;7.444;2023-03-23T06:25:31;5.30;;;2.70;;
38083;SDS011;23894;51.466;7.444;2023-03-23T06:27:35;5.63;;;2.70;;
38083;SDS011;23894;51.466;7.444;2023-03-23T06:29:39;6.88;;;2.83;;
38083;SDS011;23894;51.466;7.444;2023-03-23T06:31:45;6.32;;;2.58;;
38083;SDS011;23894;51.466;7.444;2023-03-23T06:33:49;5.43;;;2.65;;
38083;SDS011;23894;51.466;7.444;2023-03-23T06:35:52;6.07;;;2.88;;
38083;SDS011;23894;51.466;7.444;2023-03-23T06:37:56;6.05;;;2.90;;
38083;SDS011;23894;51.466;7.444;2023-03-23T06:40:03;6.15;;;2.70;;
38083;SDS011;23894;51.466;7.444;2023-03-23T06:42:10;5.30;;;2.63;;
38083;SDS011;23894;51.466;7.444;2023-03-23T06:44:12;5.60;;;2.50;;
38083;SDS011;23894;51.466;7.444;2023-03-23T06:46:14;7.53;;;3.10;;
38083;SDS011;23894;51.466;7.444;2023-03-23T06:48:17;5.25;;;2.60;;
38083;SDS011;23894;51.466;7.444;2023-03-23T06:50:44;6.53;;;2.83;;
38083;SDS011;23894;51.466;7.444;2023-03-23T06:52:48;6.43;;;2.45;;
38083;SDS011;23894;51.466;7.444;2023-03-23T06:54:51;5.85;;;2.60;;
38083;SDS011;23894;51.466;7.444;2023-03-23T06:56:54;5.97;;;2.83;;
38083;SDS011;23894;51.466;7.444;2023-03-23T06:58:57;8.25;;;2.80;;
38083;SDS011;23894;51.466;7.444;2023-03-23T07:01:00;6.25;;;2.85;;
38083;SDS011;23894;51.466;7.444;2023-03-23T07:03:03;7.00;;;2.70;;
38083;SDS011;23894;51.466;7.444;2023-03-23T07:05:07;8.85;;;3.03;;
38083;SDS011;23894;51.466;7.444;2023-03-23T07:07:11;5.53;;;2.60;;
38083;SDS011;23894;51.466;7.444;2023-03-23T07:09:14;6.85;;;2.88;;
38083;SDS011;23894;51.466;7.444;2023-03-23T07:11:16;7.47;;;2.78;;
38083;SDS011;23894;51.466;7.444;2023-03-23T07:13:21;6.30;;;2.72;;
38083;SDS011;23894;51.466;7.444;2023-03-23T07:15:23;9.02;;;3.15;;
38083;SDS011;23894;51.466;7.444;2023-03-23T07:17:37;9.25;;;2.90;;
38083;SDS011;23894;51.466;7.444;2023-03-23T07:19:39;6.85;;;2.60;;
38083;SDS011;23894;51.466;7.444;2023-03-23T07:21:42;7.72;;;2.70;;
38083;SDS011;23894;51.466;7.444;2023-03-23T07:23:48;5.88;;;2.75;;
38083;SDS011;23894;51.466;7.444;2023-03-23T07:25:54;7.97;;;2.92;;
38083;SDS011;23894;51.466;7.444;2023-03-23T07:27:58;5.75;;;2.78;;
38083;SDS011;23894;51.466;7.444;2023-03-23T07:30:05;6.50;;;2.92;;
38083;SDS011;23894;51.466;7.444;2023-03-23T07:32:09;9.07;;;2.55;;
38083;SDS011;23894;51.466;7.444;2023-03-23T07:34:15;6.75;;;2.80;;
38083;SDS011;23894;51.466;7.444;2023-03-23T07:36:26;6.70;;;2.55;;
38083;SDS011;23894;51.466;7.444;2023-03-23T07:38:29;7.50;;;2.75;;
38083;SDS011;23894;51.466;7.444;2023-03-23T07:40:31;7.45;;;2.90;;
38083;SDS011;23894;51.466;7.444;2023-03-23T07:42:37;6.68;;;2.72;;
38083;SDS011;23894;51.466;7.444;2023-03-23T07:44:39;6.65;;;2.88;;
38083;SDS011;23894;51.466;7.444;2023-03-23T07:46:41;8.60;;;2.78;;
38083;SDS011;23894;51.466;7.444;2023-03-23T07:48:44;7.05;;;2.60;;
38083;SDS011;23894;51.466;7.444;2023-03-23T07:50:47;6.00;;;2.22;;
38083;SDS011;23894;51.466;7.444;2023-03-23T07:52:57;9.70;;;2.97;;
38083;SDS011;23894;51.466;7.444;2023-03-23T07:55:04;6.82;;;2.70;;
38083;SDS011;23894;51.466;7.444;2023-03-23T07:57:07;6.63;;;2.28;;
38083;SDS011;23894;51.466;7.444;2023-03-23T07:59:09;6.97;;;2.58;;
38083;SDS011;23894;51.466;7.444;2023-03-23T08:01:14;6.55;;;2.33;;
38083;SDS011;23894;51.466;7.444;2023-03-23T08:03:18;8.50;;;2.90;;
38083;SDS011;23894;51.466;7.444;2023-03-23T08:05:21;8.13;;;2.47;;
38083;SDS011;23894;51.466;7.444;2023-03-23T08:07:24;5.57;;;2.35;;
38083;SDS011;23894;51.466;7.444;2023-03-23T08:09:28;7.10;;;2.63;;
38083;SDS011;23894;51.466;7.444;2023-03-23T08:11:31;6.30;;;2.50;;
38083;SDS011;23894;51.466;7.444;2023-03-23T08:13:37;8.68;;;2.60;;
38083;SDS011;23894;51.466;7.444;2023-03-23T08:15:41;6.20;;;2.10;;
38083;SDS011;23894;51.466;7.444;2023-03-23T08:17:53;7.80;;;2.47;;
38083;SDS011;23894;51.466;7.444;2023-03-23T08:19:57;6.32;;;2.30;;
38083;SDS011;23894;51.466;7.444;2023-03-23T08:21:59;5.43;;;2.20;;
38083;SDS011;23894;51.466;7.444;2023-03-23T08:24:01;6.50;;;2.47;;
38083;SDS011;23894;51.466;7.444;2023-03-23T08:26:15;6.95;;;2.38;;
38083;SDS011;23894;51.466;7.444;2023-03-23T08:28:19;5.57;;;1.98;;
38083;SDS011;23894;51.466;7.444;2023-03-23T08:30:23;8.07;;;2.50;;
38083;SDS011;23894;51.466;7.444;2023-03-23T08:32:39;6.97;;;2.38;;
38083;SDS011;23894;51.466;7.444;2023-03-23T08:34:41;5.60;;;2.10;;
38083;SDS011;23894;51.466;7.444;2023-03-23T08:36:44;5.80;;;2.50;;
38083;SDS011;23894;51.466;7.444;2023-03-23T08:38:48;7.63;;;2.58;;
38083;SDS011;23894;51.466;7.444;2023-03-23T08:40:57;6.95;;;2.42;;
38083;SDS011;23894;51.466;7.444;2023-03-23T08:43:10;8.73;;;2.92;;
38083;SDS011;23894;51.466;7.444;2023-03-23T08:45:15;7.28;;;2.50;;
38083;SDS011;23894;51.466;7.444;2023-03-23T08:47:18;6.30;;;2.40;;
38083;SDS011;23894;51.466;7.444;2023-03-23T08:51:36;6.70;;;2.47;;
38083;SDS011;23894;51.466;7.444;2023-03-23T08:53:39;7.50;;;2.60;;
38083;SDS011;23894;51.466;7.444;2023-03-23T08:55:44;8.40;;;2.50;;
38083;SDS011;23894;51.466;7.444;2023-03-23T08:57:48;7.10;;;2.58;;
38083;SDS011;23894;51.466;7.444;2023-03-23T08:59:52;7.20;;;2.50;;
38083;SDS011;23894;51.466;7.444;2023-03-23T09:02:01;6.63;;;2.38;;
38083;SDS011;23894;51.466;7.444;2023-03-23T09:04:05;6.05;;;2.40;;
38083;SDS011;23894;51.466;7.444;2023-03-23T09:06:07;8.05;;;2.55;;
38083;SDS011;23894;51.466;7.444;2023-03-23T09:08:14;7.60;;;2.85;;
38083;SDS011;23894;51.466;7.444;2023-03-23T09:10:19;6.82;;;2.25;;
38083;SDS011;23894;51.466;7.444;2023-03-23T09:12:40;7.05;;;2.75;;
38083;SDS011;23894;51.466;7.444;2023-03-23T09:14:43;5.75;;;2.40;;
38083;SDS011;23894;51.466;7.444;2023-03-23T09:16:50;8.93;;;2.53;;
38083;SDS011;23894;51.466;7.444;2023-03-23T09:18:52;8.82;;;2.60;;
38083;SDS011;23894;51.466;7.444;2023-03-23T09:20:54;8.45;;;2.63;;
38083;SDS011;23894;51.466;7.444;2023-03-23T09:23:07;6.90;;;2.30;;
38083;SDS011;23894;51.466;7.444;2023-03-23T09:25:11;8.52;;;2.53;;
38083;SDS011;23894;51.466;7.444;2023-03-23T09:27:15;7.70;;;2.53;;
38083;SDS011;23894;51.466;7.444;2023-03-23T09:29:19;6.43;;;2.33;;
38083;SDS011;23894;51.466;7.444;2023-03-23T09:31:23;6.18;;;2.40;;
38083;SDS011;23894;51.466;7.444;2023-03-23T09:33:37;7.18;;;2.10;;
38083;SDS011;23894;51.466;7.444;2023-03-23T09:35:49;6.43;;;2.10;;
38083;SDS011;23894;51.466;7.444;2023-03-23T09:37:52;10.93;;;2.60;;
38083;SDS011;23894;51.466;7.444;2023-03-23T09:39:55;7.30;;;2.20;;
38083;SDS011;23894;51.466;7.444;2023-03-23T09:42:00;9.23;;;2.70;;
38083;SDS011;23894;51.466;7.444;2023-03-23T09:44:12;7.80;;;2.25;;
38083;SDS011;23894;51.466;7.444;2023-03-23T09:50:44;9.00;;;2.47;;
38083;SDS011;23894;51.466;7.444;2023-03-23T09:53:02;7.22;;;2.47;;
38083;SDS011;23894;51.466;7.444;2023-03-23T09:55:07;11.90;;;2.80;;
38083;SDS011;23894;51.466;7.444;2023-03-23T09:57:19;8.48;;;2.42;;
38083;SDS011;23894;51.466;7.444;2023-03-23T10:01:47;8.13;;;2.28;;
38083;SDS011;23894;51.466;7.444;2023-03-23T10:04:07;8.60;;;2.70;;
38083;SDS011;23894;51.466;7.444;2023-03-23T10:06:12;9.90;;;2.58;;
38083;SDS011;23894;51.466;7.444;2023-03-23T10:08:29;8.35;;;2.40;;
38083;SDS011;23894;51.466;7.444;2023-03-23T10:15:35;7.45;;;2.65;;
38083;SDS011;23894;51.466;7.444;2023-03-23T10:21:52;7.20;;;2.28;;
38083;SDS011;23894;51.466;7.444;2023-03-23T10:24:09;9.23;;;2.33;;
38083;SDS011;23894;51.466;7.444;2023-03-23T10:26:17;6.60;;;2.50;;
38083;SDS011;23894;51.466;7.444;2023-03-23T10:28:37;10.35;;;2.65;;
38083;SDS011;23894;51.466;7.444;2023-03-23T10:30:52;8.15;;;2.53;;
38083;SDS011;23894;51.466;7.444;2023-03-23T10:33:08;8.20;;;2.53;;
38083;SDS011;23894;51.466;7.444;2023-03-23T10:35:25;6.65;;;2.20;;
38083;SDS011;23894;51.466;7.444;2023-03-23T10:37:43;8.40;;;2.60;;
38083;SDS011;23894;51.466;7.444;2023-03-23T10:41:48;10.18;;;3.15;;
38083;SDS011;23894;51.466;7.444;2023-03-23T10:43:50;12.63;;;3.13;;
38083;SDS011;23894;51.466;7.444;2023-03-23T10:45:57;10.25;;;2.80;;
38083;SDS011;23894;51.466;7.444;2023-03-23T10:48:16;10.00;;;2.90;;
38083;SDS011;23894;51.466;7.444;2023-03-23T10:50:23;9.55;;;2.60;;
38083;SDS011;23894;51.466;7.444;2023-03-23T10:54:37;6.20;;;1.90;;
38083;SDS011;23894;51.466;7.444;2023-03-23T10:56:43;9.38;;;2.15;;
38083;SDS011;23894;51.466;7.444;2023-03-23T10:58:49;5.80;;;1.90;;
38083;SDS011;23894;51.466;7.444;2023-03-23T11:00:51;5.25;;;2.10;;
38083;SDS011;23894;51.466;7.444;2023-03-23T11:05:21;5.13;;;1.83;;
38083;SDS011;23894;51.466;7.444;2023-03-23T11:07:36;4.07;;;1.50;;
38083;SDS011;23894;51.466;7.444;2023-03-23T11:09:50;4.78;;;1.92;;
38083;SDS011;23894;51.466;7.444;2023-03-23T11:11:53;8.20;;;2.00;;
38083;SDS011;23894;51.466;7.444;2023-03-23T11:14:19;5.55;;;2.10;;
38083;SDS011;23894;51.466;7.444;2023-03-23T11:16:42;5.63;;;1.73;;
38083;SDS011;23894;51.466;7.444;2023-03-23T11:18:45;6.32;;;2.22;;
38083;SDS011;23894;51.466;7.444;2023-03-23T11:21:07;5.65;;;2.10;;
38083;SDS011;23894;51.466;7.444;2023-03-23T11:23:10;5.93;;;2.30;;
38083;SDS011;23894;51.466;7.444;2023-03-23T11:25:16;7.97;;;2.95;;
38083;SDS011;23894;51.466;7.444;2023-03-23T11:30:29;8.00;;;3.67;;
38083;SDS011;23894;51.466;7.444;2023-03-23T11:32:06;8.80;;;4.82;;
38083;SDS011;23894;51.466;7.444;2023-03-23T11:34:13;10.50;;;5.72;;
38083;SDS011;23894;51.466;7.444;2023-03-23T11:36:15;9.95;;;4.80;;
38083;SDS011;23894;51.466;7.444;2023-03-23T11:38:17;9.57;;;5.38;;
38083;SDS011;23894;51.466;7.444;2023-03-23T11:40:23;10.32;;;5.43;;
38083;SDS011;23894;51.466;7.444;2023-03-23T11:42:26;12.93;;;6.82;;
38083;SDS011;23894;51.466;7.444;2023-03-23T11:44:39;11.38;;;6.53;;
38083;SDS011;23894;51.466;7.444;2023-03-23T11:46:49;12.00;;;7.55;;
38083;SDS011;23894;51.466;7.444;2023-03-23T11:48:57;14.48;;;8.65;;
38083;SDS011;23894;51.466;7.444;2023-03-23T11:55:08;12.52;;;8.10;;
38083;SDS011;23894;51.466;7.444;2023-03-23T11:57:10;12.95;;;7.30;;
38083;SDS011;23894;51.466;7.444;2023-03-23T11:59:33;11.18;;;8.07;;
38083;SDS011;23894;51.466;7.444;2023-03-23T12:06:03;8.30;;;5.25;;
38083;SDS011;23894;51.466;7.444;2023-03-23T12:08:14;7.63;;;5.03;;
38083;SDS011;23894;51.466;7.444;2023-03-23T12:10:36;6.90;;;4.57;;
38083;SDS011;23894;51.466;7.444;2023-03-23T12:13:00;6.93;;;4.90;;
38083;SDS011;23894;51.466;7.444;2023-03-23T12:15:19;7.22;;;5.35;;
38083;SDS011;23894;51.466;7.444;2023-03-23T12:22:08;7.72;;;4.72;;
38083;SDS011;23894;51.466;7.444;2023-03-23T12:26:29;7.93;;;4.30;;
38083;SDS011;23894;51.466;7.444;2023-03-23T12:31:15;11.20;;;4.38;;
38083;SDS011;23894;51.466;7.444;2023-03-23T12:37:45;7.03;;;3.03;;
38083;SDS011;23894;51.466;7.444;2023-03-23T12:44:03;7.65;;;3.22;;
38083;SDS011;23894;51.466;7.444;2023-03-23T12:48:10;9.45;;;3.65;;
38083;SDS011;23894;51.466;7.444;2023-03-23T12:50:27;7.32;;;3.67;;
38083;SDS011;23894;51.466;7.444;2023-03-23T12:56:43;5.90;;;2.70;;
38083;SDS011;23894;51.466;7.444;2023-03-23T12:58:50;6.40;;;2.47;;
38083;SDS011;23894;51.466;7.444;2023-03-23T13:03:22;5.70;;;2.83;;
38083;SDS011;23894;51.466;7.444;2023-03-23T13:05:28;6.50;;;2.63;;
38083;SDS011;23894;51.466;7.444;2023-03-23T13:07:35;6.53;;;3.03;;
38083;SDS011;23894;51.466;7.444;2023-03-23T13:11:50;6.95;;;3.08;;
38083;SDS011;23894;51.466;7.444;2023-03-23T13:13:53;5.50;;;3.17;;
38083;SDS011;23894;51.466;7.444;2023-03-23T13:16:00;8.50;;;3.75;;
38083;SDS011;23894;51.466;7.444;2023-03-23T13:25:01;5.68;;;3.20;;
38083;SDS011;23894;51.466;7.444;2023-03-23T13:27:04;7.93;;;3.22;;
38083;SDS011;23894;51.466;7.444;2023-03-23T13:29:13;7.78;;;2.92;;
38083;SDS011;23894;51.466;7.444;2023-03-23T13:31:33;5.40;;;2.22;;
38083;SDS011;23894;51.466;7.444;2023-03-23T13:33:36;5.28;;;2.53;;
38083;SDS011;23894;51.466;7.444;2023-03-23T13:35:39;6.80;;;2.05;;
38083;SDS011;23894;51.466;7.444;2023-03-23T13:37:46;4.88;;;2.22;;
38083;SDS011;23894;51.466;7.444;2023-03-23T13:39:52;6.93;;;2.25;;
38083;SDS011;23894;51.466;7.444;2023-03-23T13:44:17;5.93;;;2.08;;
38083;SDS011;23894;51.466;7.444;2023-03-23T13:46:27;6.28;;;2.67;;
38083;SDS011;23894;51.466;7.444;2023-03-23T13:48:28;11.07;;;2.60;;
38083;SDS011;23894;51.466;7.444;2023-03-23T13:50:44;4.90;;;2.20;;
38083;SDS011;23894;51.466;7.444;2023-03-23T13:54:46;4.63;;;2.13;;
38083;SDS011;23894;51.466;7.444;2023-03-23T13:56:58;5.63;;;2.70;;
38083;SDS011;23894;51.466;7.444;2023-03-23T13:59:06;7.05;;;2.70;;
38083;SDS011;23894;51.466;7.444;2023-03-23T14:03:16;5.90;;;3.40;;
38083;SDS011;23894;51.466;7.444;2023-03-23T14:07:21;7.63;;;3.50;;
38083;SDS011;23894;51.466;7.444;2023-03-23T14:11:26;5.90;;;3.47;;
38083;SDS011;23894;51.466;7.444;2023-03-23T14:13:38;6.95;;;3.65;;
38083;SDS011;23894;51.466;7.444;2023-03-23T14:15:41;6.15;;;3.47;;
38083;SDS011;23894;51.466;7.444;2023-03-23T14:17:44;6.45;;;4.07;;
38083;SDS011;23894;51.466;7.444;2023-03-23T14:19:49;7.68;;;3.95;;
38083;SDS011;23894;51.466;7.444;2023-03-23T14:23:52;7.47;;;4.70;;
38083;SDS011;23894;51.466;7.444;2023-03-23T14:25:59;8.90;;;4.43;;
38083;SDS011;23894;51.466;7.444;2023-03-23T14:28:16;8.88;;;5.50;;